Time;durP1;ratioP1;P1;durP2;ratioP2;P2;SDS_P1;SDS_P2;PMS_P1;PMS_P2;Temp;Humidity;BMP_temperature;BMP_pressure;BME280_temperature;BME280_humidity;BME280_pressure;Samples;Min_cycle;Max_cycle;Signal;HPM_P1;HPM_P2
2023/05/10 00:02:54;;;;;;;25.52;17.67;;;;;;;;;;6320812;28;20052;-69
2023/05/10 00:05:55;;;;;;;24.90;17.97;;;;;;;;;;6320864;28;20222;-70
2023/05/10 00:08:57;;;;;;;25.35;17.83;;;;;;;;;;6323095;28;20179;-69
2023/05/10 00:11:59;;;;;;;24.40;17.83;;;;;;;;;;6324468;28;20918;-69
2023/05/10 00:15:00;;;;;;;23.83;17.65;;;;;;;;;;6322333;28;20060;-69
2023/05/10 00:18:03;;;;;;;25.55;18.20;;;;;;;;;;6324566;28;20052;-69
2023/05/10 00:21:08;;;;;;;27.85;18.98;;;;;;;;;;6319059;28;20062;-69
2023/05/10 00:24:10;;;;;;;24.13;17.98;;;;;;;;;;6327458;28;20315;-69
2023/05/10 00:27:12;;;;;;;25.05;17.95;;;;;;;;;;6315444;28;20055;-69
2023/05/10 00:30:13;;;;;;;24.27;16.95;;;;;;;;;;6323781;28;20077;-69
2023/05/10 00:33:16;;;;;;;24.40;16.63;;;;;;;;;;6318056;28;20052;-69
2023/05/10 00:36:18;;;;;;;23.05;16.65;;;;;;;;;;6321920;28;20044;-67
2023/05/10 00:39:20;;;;;;;24.58;17.55;;;;;;;;;;6319518;28;20089;-69
2023/05/10 00:42:22;;;;;;;24.42;17.25;;;;;;;;;;6325382;28;20056;-69
2023/05/10 00:45:24;;;;;;;23.65;17.60;;;;;;;;;;6323370;28;20106;-69
2023/05/10 00:48:27;;;;;;;24.25;17.15;;;;;;;;;;6321875;28;20093;-69
2023/05/10 00:51:29;;;;;;;24.83;18.13;;;;;;;;;;6325676;28;20067;-68
2023/05/10 00:54:31;;;;;;;23.70;16.90;;;;;;;;;;6322603;28;20052;-69
2023/05/10 00:57:33;;;;;;;25.27;16.23;;;;;;;;;;6324255;28;20074;-68
2023/05/10 01:00:34;;;;;;;20.30;15.10;;;;;;;;;;6321284;28;20352;-70
2023/05/10 01:03:38;;;;;;;24.35;14.73;;;;;;;;;;6319808;28;20343;-68
2023/05/10 01:06:40;;;;;;;21.95;15.55;;;;;;;;;;6321846;28;20040;-68
2023/05/10 01:09:41;;;;;;;20.17;15.13;;;;;;;;;;6320549;28;20113;-68
2023/05/10 01:12:46;;;;;;;21.15;15.30;;;;;;;;;;6328846;28;20059;-68
2023/05/10 01:15:48;;;;;;;19.98;14.25;;;;;;;;;;6332683;28;20051;-68
2023/05/10 01:18:52;;;;;;;19.98;14.18;;;;;;;;;;6327501;28;20051;-68
2023/05/10 01:22:07;;;;;;;20.00;14.25;;;;;;;;;;6334094;28;20101;-69
2023/05/10 01:25:27;;;;;;;20.52;14.55;;;;;;;;;;6331467;28;20091;-68
2023/05/10 01:28:57;;;;;;;22.23;15.27;;;;;;;;;;6327509;28;20067;-68
2023/05/10 01:32:26;;;;;;;23.10;15.27;;;;;;;;;;6324252;28;20121;-68
2023/05/10 01:35:32;;;;;;;23.10;15.30;;;;;;;;;;6325668;28;20044;-68
2023/05/10 01:38:40;;;;;;;21.52;14.85;;;;;;;;;;6324529;28;20065;-68
2023/05/10 01:41:47;;;;;;;23.50;15.18;;;;;;;;;;6330559;28;20045;-68
2023/05/10 01:44:54;;;;;;;22.10;14.50;;;;;;;;;;6326803;28;20105;-68
2023/05/10 01:48:06;;;;;;;20.48;14.82;;;;;;;;;;6329327;28;20078;-68
2023/05/10 01:51:08;;;;;;;20.45;13.88;;;;;;;;;;6330811;28;20090;-68
2023/05/10 01:54:11;;;;;;;20.55;14.82;;;;;;;;;;6329494;28;20121;-68
2023/05/10 01:57:14;;;;;;;20.77;14.83;;;;;;;;;;6325307;28;20044;-68
2023/05/10 02:00:17;;;;;;;21.80;14.20;;;;;;;;;;6328444;28;20062;-68
2023/05/10 02:03:22;;;;;;;22.05;14.82;;;;;;;;;;6332061;28;20040;-68
2023/05/10 02:06:25;;;;;;;20.95;14.95;;;;;;;;;;6328693;28;20051;-69
2023/05/10 02:09:29;;;;;;;22.27;13.95;;;;;;;;;;6324800;28;20060;-68
2023/05/10 02:12:32;;;;;;;19.02;12.93;;;;;;;;;;6325719;28;20286;-69
2023/05/10 02:15:35;;;;;;;18.08;13.02;;;;;;;;;;6331021;28;20056;-68
2023/05/10 02:18:38;;;;;;;17.83;13.32;;;;;;;;;;6320629;28;20064;-68
2023/05/10 02:21:40;;;;;;;17.40;12.63;;;;;;;;;;6326270;28;20415;-68
2023/05/10 02:24:42;;;;;;;16.63;11.48;;;;;;;;;;6325771;28;20365;-68
2023/05/10 02:27:45;;;;;;;14.18;11.05;;;;;;;;;;6328720;28;20128;-68
2023/05/10 02:30:48;;;;;;;14.45;9.95;;;;;;;;;;6325014;28;20055;-69
2023/05/10 02:33:51;;;;;;;13.13;9.48;;;;;;;;;;6322952;28;20058;-68
2023/05/10 02:36:54;;;;;;;12.32;9.32;;;;;;;;;;6323587;28;20059;-68
2023/05/10 02:39:56;;;;;;;12.45;8.55;;;;;;;;;;6325367;28;20080;-68
2023/05/10 02:43:00;;;;;;;16.33;8.90;;;;;;;;;;6324030;28;20245;-68
2023/05/10 02:46:02;;;;;;;11.45;8.18;;;;;;;;;;6325822;28;20254;-68
2023/05/10 02:49:05;;;;;;;11.77;8.50;;;;;;;;;;6324417;28;20052;-68
2023/05/10 02:52:08;;;;;;;12.57;8.77;;;;;;;;;;6327666;28;20101;-68
2023/05/10 02:55:12;;;;;;;13.20;8.80;;;;;;;;;;6327809;28;20138;-68
2023/05/10 02:58:14;;;;;;;14.02;8.65;;;;;;;;;;6325534;28;20111;-68
2023/05/10 03:01:16;;;;;;;14.15;8.77;;;;;;;;;;6326843;28;20137;-68
2023/05/10 03:04:19;;;;;;;11.57;7.97;;;;;;;;;;6325141;28;20404;-68
2023/05/10 03:07:21;;;;;;;11.93;8.33;;;;;;;;;;6328409;28;20161;-68
2023/05/10 03:10:27;;;;;;;10.85;7.65;;;;;;;;;;6324628;28;20307;-68
2023/05/10 03:13:35;;;;;;;11.27;8.55;;;;;;;;;;6326615;28;20074;-68
2023/05/10 03:16:42;;;;;;;11.27;8.35;;;;;;;;;;6326002;28;20333;-68
2023/05/10 03:19:50;;;;;;;13.93;8.90;;;;;;;;;;6324567;28;20071;-68
2023/05/10 03:22:54;;;;;;;12.68;8.27;;;;;;;;;;6324284;28;20055;-67
2023/05/10 03:25:56;;;;;;;11.98;8.25;;;;;;;;;;6325033;28;20332;-68
2023/05/10 03:28:59;;;;;;;12.93;8.43;;;;;;;;;;6324539;28;20096;-68
2023/05/10 03:32:01;;;;;;;11.63;9.33;;;;;;;;;;6329733;28;20052;-68
2023/05/10 03:35:09;;;;;;;12.65;9.02;;;;;;;;;;6323330;28;20048;-68
2023/05/10 03:38:10;;;;;;;12.88;8.18;;;;;;;;;;6323255;28;20059;-68
2023/05/10 03:41:12;;;;;;;11.23;8.00;;;;;;;;;;6319296;28;20052;-68
2023/05/10 03:44:14;;;;;;;11.95;7.95;;;;;;;;;;6325008;28;20340;-67
2023/05/10 03:47:15;;;;;;;11.13;7.47;;;;;;;;;;6322675;28;20125;-68
2023/05/10 03:50:18;;;;;;;13.65;7.50;;;;;;;;;;6324881;28;20051;-69
2023/05/10 03:53:20;;;;;;;10.27;8.20;;;;;;;;;;6323388;28;20059;-68
2023/05/10 03:56:21;;;;;;;11.57;8.27;;;;;;;;;;6326567;28;20094;-68
2023/05/10 03:59:23;;;;;;;10.77;7.60;;;;;;;;;;6324292;28;20056;-68
2023/05/10 04:02:25;;;;;;;10.07;7.28;;;;;;;;;;6324104;28;20117;-69
2023/05/10 04:05:28;;;;;;;10.10;7.63;;;;;;;;;;6325158;28;20053;-68
2023/05/10 04:08:29;;;;;;;9.80;6.75;;;;;;;;;;6322217;28;20052;-68
2023/05/10 04:11:31;;;;;;;9.82;6.85;;;;;;;;;;6320410;28;20051;-69
2023/05/10 04:14:33;;;;;;;12.80;7.72;;;;;;;;;;6320962;28;20051;-68
2023/05/10 04:17:34;;;;;;;10.73;7.25;;;;;;;;;;6324399;28;20356;-68
2023/05/10 04:20:37;;;;;;;10.65;6.88;;;;;;;;;;6322396;28;20286;-69
2023/05/10 04:23:39;;;;;;;11.85;7.57;;;;;;;;;;6314839;28;20162;-68
2023/05/10 04:26:40;;;;;;;8.77;6.55;;;;;;;;;;6318248;28;20058;-68
2023/05/10 04:29:42;;;;;;;7.60;5.90;;;;;;;;;;6321150;28;20044;-68
2023/05/10 04:32:44;;;;;;;8.38;6.53;;;;;;;;;;6322241;28;20224;-68
2023/05/10 04:35:47;;;;;;;9.23;6.82;;;;;;;;;;6324046;28;21462;-68
2023/05/10 04:38:48;;;;;;;9.15;6.00;;;;;;;;;;6320305;28;20145;-68
2023/05/10 04:41:50;;;;;;;7.57;6.05;;;;;;;;;;6324864;28;20051;-69
2023/05/10 04:44:52;;;;;;;9.85;6.53;;;;;;;;;;6315917;28;20282;-68
2023/05/10 04:47:53;;;;;;;10.45;6.80;;;;;;;;;;6327413;28;20063;-68
2023/05/10 04:50:56;;;;;;;7.22;5.22;;;;;;;;;;6320382;28;20055;-67
2023/05/10 04:53:58;;;;;;;6.20;5.07;;;;;;;;;;6325121;28;20060;-67
2023/05/10 04:57:00;;;;;;;9.48;5.88;;;;;;;;;;6325830;28;20052;-67
2023/05/10 05:00:01;;;;;;;7.28;5.35;;;;;;;;;;6323849;28;20427;-67
2023/05/10 05:03:03;;;;;;;9.30;5.82;;;;;;;;;;6325568;28;20048;-68
2023/05/10 05:06:07;;;;;;;9.05;5.45;;;;;;;;;;6322308;28;20052;-68
2023/05/10 05:09:09;;;;;;;8.80;5.57;;;;;;;;;;6325517;28;20070;-68
2023/05/10 05:12:13;;;;;;;11.32;6.07;;;;;;;;;;6321176;28;20103;-68
2023/05/10 05:15:16;;;;;;;14.02;6.43;;;;;;;;;;6321313;28;20058;-68
2023/05/10 05:18:18;;;;;;;12.05;6.95;;;;;;;;;;6322853;28;20047;-69
2023/05/10 05:21:21;;;;;;;9.65;6.47;;;;;;;;;;6326618;28;20056;-68
2023/05/10 05:24:23;;;;;;;7.32;5.13;;;;;;;;;;6327094;28;20044;-68
2023/05/10 05:27:26;;;;;;;8.63;5.72;;;;;;;;;;6325274;28;20097;-68
2023/05/10 05:30:27;;;;;;;7.70;5.77;;;;;;;;;;6323284;28;20116;-68
2023/05/10 05:33:29;;;;;;;10.55;6.20;;;;;;;;;;6323785;28;20055;-68
2023/05/10 05:36:33;;;;;;;10.27;6.90;;;;;;;;;;6320286;28;20332;-68
2023/05/10 05:39:37;;;;;;;10.73;7.30;;;;;;;;;;6320647;28;20085;-68
2023/05/10 05:42:39;;;;;;;10.60;7.00;;;;;;;;;;6322513;28;20051;-68
2023/05/10 05:45:41;;;;;;;9.82;7.28;;;;;;;;;;6320744;28;20844;-68
2023/05/10 05:48:42;;;;;;;10.80;7.70;;;;;;;;;;6321702;28;20055;-68
2023/05/10 05:51:46;;;;;;;37.20;24.20;;;;;;;;;;6323456;28;20044;-71
2023/05/10 05:54:47;;;;;;;22.20;14.70;;;;;;;;;;6320853;28;20054;-69
2023/05/10 05:57:49;;;;;;;12.13;8.30;;;;;;;;;;6329526;28;20043;-69
2023/05/10 06:00:51;;;;;;;10.93;7.85;;;;;;;;;;6328338;28;20055;-69
2023/05/10 06:03:53;;;;;;;9.05;6.93;;;;;;;;;;6330084;28;20048;-68
2023/05/10 06:06:56;;;;;;;8.63;6.60;;;;;;;;;;6330796;28;20059;-69
2023/05/10 06:09:58;;;;;;;10.50;7.35;;;;;;;;;;6327774;28;20055;-68
2023/05/10 06:13:00;;;;;;;8.80;6.88;;;;;;;;;;6328129;28;20049;-68
2023/05/10 06:16:01;;;;;;;11.30;7.45;;;;;;;;;;6327527;28;20048;-69
2023/05/10 06:19:03;;;;;;;9.82;8.07;;;;;;;;;;6328773;28;20055;-68
2023/05/10 06:22:06;;;;;;;82.53;56.72;;;;;;;;;;6326617;28;20100;-70
2023/05/10 06:25:09;;;;;;;41.55;24.75;;;;;;;;;;6327605;28;20048;-70
2023/05/10 06:28:11;;;;;;;23.83;16.00;;;;;;;;;;6329448;28;20055;-70
2023/05/10 06:31:12;;;;;;;27.55;17.13;;;;;;;;;;6323118;28;20055;-69
2023/05/10 06:34:14;;;;;;;13.75;10.13;;;;;;;;;;6323889;28;20101;-69
2023/05/10 06:37:17;;;;;;;13.32;8.40;;;;;;;;;;6324492;28;20129;-68
2023/05/10 06:40:19;;;;;;;9.35;6.80;;;;;;;;;;6326131;28;20106;-69
2023/05/10 06:43:21;;;;;;;10.05;7.40;;;;;;;;;;6327047;28;20056;-68
2023/05/10 06:46:22;;;;;;;9.35;6.80;;;;;;;;;;6327151;28;20060;-68
2023/05/10 06:49:24;;;;;;;7.88;6.40;;;;;;;;;;6326458;28;20047;-68
2023/05/10 06:52:27;;;;;;;9.45;6.85;;;;;;;;;;6314951;28;20046;-68
2023/05/10 06:55:29;;;;;;;8.50;6.85;;;;;;;;;;6303293;28;20083;-68
2023/05/10 06:58:32;;;;;;;8.43;5.78;;;;;;;;;;6299166;28;20056;-68
2023/05/10 07:01:34;;;;;;;8.73;6.23;;;;;;;;;;6302540;28;20060;-68
2023/05/10 07:04:35;;;;;;;8.50;6.53;;;;;;;;;;6305724;28;20108;-68
2023/05/10 07:07:39;;;;;;;7.68;6.05;;;;;;;;;;6302490;28;20099;-68
2023/05/10 07:10:41;;;;;;;8.15;6.60;;;;;;;;;;6303908;28;20348;-68
2023/05/10 07:13:44;;;;;;;8.60;6.03;;;;;;;;;;6302797;28;20121;-68
2023/05/10 07:16:45;;;;;;;11.13;7.15;;;;;;;;;;6301339;28;20645;-68
2023/05/10 07:19:47;;;;;;;6.60;5.25;;;;;;;;;;6305073;28;20325;-68
2023/05/10 07:22:50;;;;;;;8.48;6.00;;;;;;;;;;6302498;28;20309;-69
2023/05/10 07:25:52;;;;;;;7.65;5.60;;;;;;;;;;6299631;28;20056;-68
2023/05/10 07:28:54;;;;;;;8.45;6.63;;;;;;;;;;6300267;28;20048;-68
2023/05/10 07:31:55;;;;;;;7.18;5.65;;;;;;;;;;6301679;28;20045;-68
2023/05/10 07:34:57;;;;;;;7.55;5.45;;;;;;;;;;6302886;28;20048;-68
2023/05/10 07:38:00;;;;;;;8.10;6.00;;;;;;;;;;6301304;28;20336;-68
2023/05/10 07:41:02;;;;;;;5.63;4.38;;;;;;;;;;6299091;28;20241;-68
2023/05/10 07:44:04;;;;;;;7.40;4.60;;;;;;;;;;6304773;28;20051;-68
2023/05/10 07:47:06;;;;;;;8.07;5.65;;;;;;;;;;6299970;28;20047;-68
2023/05/10 07:50:08;;;;;;;8.23;5.45;;;;;;;;;;6303991;28;20116;-68
2023/05/10 07:53:11;;;;;;;7.07;5.18;;;;;;;;;;6318915;28;20057;-68
2023/05/10 07:56:24;;;;;;;6.53;5.45;;;;;;;;;;6326337;28;20076;-68
2023/05/10 07:59:26;;;;;;;7.38;5.38;;;;;;;;;;6324390;28;20043;-68
2023/05/10 08:02:28;;;;;;;6.07;4.80;;;;;;;;;;6320794;28;20398;-69
2023/05/10 08:05:29;;;;;;;8.02;5.72;;;;;;;;;;6326110;28;20071;-68
2023/05/10 08:08:32;;;;;;;6.65;5.00;;;;;;;;;;6324966;28;20130;-69
2023/05/10 08:11:34;;;;;;;5.05;4.30;;;;;;;;;;6324386;28;20324;-68
2023/05/10 08:14:36;;;;;;;5.13;4.35;;;;;;;;;;6321939;28;20059;-69
2023/05/10 08:17:38;;;;;;;5.05;4.00;;;;;;;;;;6325117;28;20300;-69
2023/05/10 08:20:39;;;;;;;5.35;4.25;;;;;;;;;;6323379;28;20044;-69
2023/05/10 08:23:43;;;;;;;6.40;4.85;;;;;;;;;;6324887;28;20278;-69
2023/05/10 08:26:45;;;;;;;6.97;3.70;;;;;;;;;;6322300;28;20052;-68
2023/05/10 08:29:46;;;;;;;4.40;3.65;;;;;;;;;;6324169;28;20060;-68
2023/05/10 08:32:48;;;;;;;6.00;3.78;;;;;;;;;;6323940;28;20062;-68
2023/05/10 08:35:50;;;;;;;5.07;3.63;;;;;;;;;;6322276;28;20105;-69
2023/05/10 08:38:53;;;;;;;5.50;3.45;;;;;;;;;;6321143;28;20058;-68
2023/05/10 08:41:55;;;;;;;5.93;3.97;;;;;;;;;;6324281;28;20173;-68
2023/05/10 08:44:58;;;;;;;5.43;3.50;;;;;;;;;;6319533;28;20056;-68
2023/05/10 08:48:00;;;;;;;4.33;3.53;;;;;;;;;;6322066;28;20251;-68
2023/05/10 08:51:04;;;;;;;4.68;3.80;;;;;;;;;;6325457;28;20055;-69
2023/05/10 08:54:07;;;;;;;4.70;3.83;;;;;;;;;;6326745;28;20101;-68
2023/05/10 08:57:09;;;;;;;5.72;3.97;;;;;;;;;;6326556;28;20232;-68
2023/05/10 09:00:12;;;;;;;3.90;3.33;;;;;;;;;;6326881;28;20056;-68
2023/05/10 09:03:13;;;;;;;5.13;3.53;;;;;;;;;;6329441;28;20056;-68
2023/05/10 09:06:15;;;;;;;4.20;3.70;;;;;;;;;;6328467;28;20052;-68
2023/05/10 09:09:18;;;;;;;5.88;3.35;;;;;;;;;;6328323;28;20435;-68
2023/05/10 09:12:20;;;;;;;3.87;3.47;;;;;;;;;;6327268;28;20052;-69
2023/05/10 09:15:22;;;;;;;4.00;3.40;;;;;;;;;;6327008;28;20060;-68
2023/05/10 09:18:23;;;;;;;3.83;3.30;;;;;;;;;;6329325;28;20051;-68
2023/05/10 09:21:26;;;;;;;4.25;3.80;;;;;;;;;;6328661;28;20093;-68
2023/05/10 09:24:30;;;;;;;4.70;3.58;;;;;;;;;;6323620;28;20362;-69
2023/05/10 09:27:32;;;;;;;4.97;3.58;;;;;;;;;;6324126;28;20336;-69
2023/05/10 09:30:34;;;;;;;5.13;3.95;;;;;;;;;;6325670;28;20055;-71
2023/05/10 09:33:45;;;;;;;6.47;3.15;;;;;;;;;;6332669;28;20051;-69
2023/05/10 09:36:54;;;;;;;4.65;3.00;;;;;;;;;;6330869;28;20056;-68
2023/05/10 09:39:57;;;;;;;3.92;3.00;;;;;;;;;;6327075;28;20064;-68
2023/05/10 09:43:00;;;;;;;3.80;3.10;;;;;;;;;;6330076;28;20052;-68
2023/05/10 09:46:09;;;;;;;4.13;3.60;;;;;;;;;;6333567;28;20047;-68
2023/05/10 09:49:15;;;;;;;4.35;3.67;;;;;;;;;;6327235;28;20098;-69
2023/05/10 09:52:17;;;;;;;5.70;3.50;;;;;;;;;;6329901;28;20055;-70
2023/05/10 09:55:21;;;;;;;4.45;3.75;;;;;;;;;;6325471;28;20055;-69
2023/05/10 09:58:23;;;;;;;5.63;3.10;;;;;;;;;;6327245;28;20115;-69
2023/05/10 10:01:26;;;;;;;4.00;3.40;;;;;;;;;;6327137;28;20060;-69
2023/05/10 10:04:28;;;;;;;4.45;3.85;;;;;;;;;;6326213;28;20217;-69
2023/05/10 10:07:30;;;;;;;6.60;4.38;;;;;;;;;;6327282;28;20254;-69
2023/05/10 10:10:34;;;;;;;5.93;3.80;;;;;;;;;;6325240;28;20220;-68
2023/05/10 10:13:36;;;;;;;5.32;3.42;;;;;;;;;;6325991;28;20126;-69
2023/05/10 10:16:38;;;;;;;4.75;3.45;;;;;;;;;;6323750;28;20055;-69
2023/05/10 10:19:39;;;;;;;5.60;3.88;;;;;;;;;;6327165;28;20059;-69
2023/05/10 10:22:43;;;;;;;5.50;4.35;;;;;;;;;;6326124;28;20043;-69
2023/05/10 10:25:48;;;;;;;8.63;3.90;;;;;;;;;;6326168;28;20124;-69
2023/05/10 10:28:55;;;;;;;6.07;3.30;;;;;;;;;;6324616;28;20048;-69
2023/05/10 10:32:05;;;;;;;5.28;3.50;;;;;;;;;;6324069;28;20332;-69
2023/05/10 10:35:08;;;;;;;5.13;3.60;;;;;;;;;;6323323;28;20131;-69
2023/05/10 10:38:09;;;;;;;4.78;3.80;;;;;;;;;;6322260;28;20087;-69
2023/05/10 10:41:28;;;;;;;4.55;3.67;;;;;;;;;;6319666;28;20084;-69
2023/05/10 10:44:41;;;;;;;3.97;3.55;;;;;;;;;;6320841;28;20066;-69
2023/05/10 10:47:43;;;;;;;5.07;3.80;;;;;;;;;;6326048;28;20098;-69
2023/05/10 10:50:46;;;;;;;5.43;3.90;;;;;;;;;;6323218;28;20077;-68
2023/05/10 10:53:49;;;;;;;4.78;3.63;;;;;;;;;;6323842;28;20071;-68
2023/05/10 11:00:28;;;;;;;6.18;4.13;;;;;;;;;;6276169;27;20686;-69
2023/05/10 11:03:30;;;;;;;5.40;3.53;;;;;;;;;;6261833;28;20056;-70
2023/05/10 11:06:33;;;;;;;3.95;3.58;;;;;;;;;;6253922;28;20057;-69
2023/05/10 11:09:40;;;;;;;4.20;3.42;;;;;;;;;;6259379;28;20060;-68
2023/05/10 11:12:52;;;;;;;4.72;3.85;;;;;;;;;;6257608;28;20079;-68
2023/05/10 11:15:56;;;;;;;4.43;3.70;;;;;;;;;;6260015;28;20052;-70
2023/05/10 11:19:01;;;;;;;3.88;3.25;;;;;;;;;;6259022;28;20280;-69
2023/05/10 11:22:16;;;;;;;4.60;3.67;;;;;;;;;;6245558;28;20750;-80
2023/05/10 11:25:18;;;;;;;6.93;3.92;;;;;;;;;;6240892;28;20053;-79
2023/05/10 11:28:20;;;;;;;6.47;3.65;;;;;;;;;;6257002;28;20414;-80
2023/05/10 11:31:26;;;;;;;4.78;4.18;;;;;;;;;;6264000;28;20111;-79
2023/05/10 11:34:29;;;;;;;4.70;3.90;;;;;;;;;;6265034;28;20053;-78
2023/05/10 11:37:33;;;;;;;8.27;4.40;;;;;;;;;;6253833;28;20289;-78
2023/05/10 11:40:35;;;;;;;;;;;;;;;;;;6257228;28;20394;-76
2023/05/10 11:43:38;;;;;;;6.28;4.50;;;;;;;;;;6261741;28;19971;-76
2023/05/10 11:46:41;;;;;;;5.38;4.22;;;;;;;;;;6261554;28;20049;-77
2023/05/10 11:49:44;;;;;;;3.87;3.47;;;;;;;;;;6261865;28;20053;-76
2023/05/10 11:52:46;;;;;;;7.07;4.47;;;;;;;;;;6264820;28;20103;-76
2023/05/10 11:55:48;;;;;;;6.57;4.70;;;;;;;;;;6263070;28;20057;-76
2023/05/10 11:58:54;;;;;;;6.70;5.20;;;;;;;;;;6260133;28;20057;-76
2023/05/10 12:01:57;;;;;;;6.20;5.45;;;;;;;;;;6265537;28;20056;-75
2023/05/10 12:04:59;;;;;;;5.80;5.20;;;;;;;;;;6263959;28;20060;-76
2023/05/10 12:08:21;;;;;;;6.20;5.50;;;;;;;;;;6264558;28;20045;-75
2023/05/10 12:11:25;;;;;;;5.85;5.28;;;;;;;;;;6247477;28;20084;-75
2023/05/10 12:14:28;;;;;;;6.30;5.07;;;;;;;;;;6245928;28;20057;-75
2023/05/10 12:17:31;;;;;;;4.78;4.38;;;;;;;;;;6246584;28;20113;-75
2023/05/10 12:20:33;;;;;;;4.82;4.22;;;;;;;;;;6245169;28;20053;-75
2023/05/10 12:23:34;;;;;;;5.50;4.70;;;;;;;;;;6246637;28;20329;-76
2023/05/10 12:26:36;;;;;;;6.20;4.22;;;;;;;;;;6247901;28;20061;-75
2023/05/10 12:29:43;;;;;;;4.38;3.45;;;;;;;;;;6246478;28;20041;-75
2023/05/10 12:32:46;;;;;;;4.88;3.58;;;;;;;;;;6245159;28;20080;-75
2023/05/10 12:35:49;;;;;;;4.27;3.47;;;;;;;;;;6248431;28;20052;-75
2023/05/10 12:38:52;;;;;;;4.13;3.70;;;;;;;;;;6245438;28;20103;-75
2023/05/10 12:41:54;;;;;;;4.03;3.50;;;;;;;;;;6243590;28;20053;-76
2023/05/10 12:44:57;;;;;;;4.85;3.70;;;;;;;;;;6242346;28;20136;-76
2023/05/10 12:48:00;;;;;;;5.47;3.72;;;;;;;;;;6243837;28;20064;-79
2023/05/10 12:51:02;;;;;;;4.60;3.80;;;;;;;;;;6242355;28;20057;-79
2023/05/10 12:54:04;;;;;;;5.00;3.83;;;;;;;;;;6241641;28;20068;-76
2023/05/10 12:57:05;;;;;;;4.07;3.50;;;;;;;;;;6242457;28;20281;-76
2023/05/10 13:00:08;;;;;;;3.70;3.00;;;;;;;;;;6242930;28;20084;-74
2023/05/10 13:03:11;;;;;;;3.45;3.10;;;;;;;;;;6241433;28;20347;-77
2023/05/10 13:06:14;;;;;;;3.53;3.22;;;;;;;;;;6241171;28;20105;-77
2023/05/10 13:09:16;;;;;;;3.33;2.90;;;;;;;;;;6241462;28;20130;-78
2023/05/10 13:12:17;;;;;;;4.00;3.00;;;;;;;;;;6243028;28;20057;-78
2023/05/10 13:15:22;;;;;;;5.03;3.58;;;;;;;;;;6242173;28;20143;-77
2023/05/10 13:18:26;;;;;;;4.85;3.40;;;;;;;;;;6241854;28;20053;-76
2023/05/10 13:21:27;;;;;;;3.85;3.45;;;;;;;;;;6240910;28;20200;-77
2023/05/10 13:24:30;;;;;;;5.43;3.85;;;;;;;;;;6238871;28;20045;-77
2023/05/10 13:27:32;;;;;;;4.90;3.70;;;;;;;;;;6243654;28;20341;-76
2023/05/10 13:30:35;;;;;;;5.00;4.10;;;;;;;;;;6242609;28;20065;-77
2023/05/10 13:33:38;;;;;;;5.38;3.97;;;;;;;;;;6241791;28;20056;-77
2023/05/10 13:36:41;;;;;;;4.78;4.07;;;;;;;;;;6212510;28;20053;-77
2023/05/10 13:39:57;;;;;;;;;;;;;;;;;;;;;
2023/05/10 13:43:12;;;;;;;4.70;4.20;;;;;;;;;;6237362;28;20058;-77
2023/05/10 13:46:19;;;;;;;6.35;3.90;;;;;;;;;;6231416;28;20057;-78
2023/05/10 13:49:22;;;;;;;6.38;4.40;;;;;;;;;;6250803;28;20128;-78
2023/05/10 13:52:24;;;;;;;4.47;3.97;;;;;;;;;;6238177;28;20057;-78
2023/05/10 13:55:26;;;;;;;6.18;4.10;;;;;;;;;;6240280;28;20209;-78
2023/05/10 13:58:27;;;;;;;4.95;4.03;;;;;;;;;;6238029;28;20049;-78
2023/05/10 14:01:29;;;;;;;3.72;3.40;;;;;;;;;;6239622;28;20257;-79
2023/05/10 14:04:34;;;;;;;4.72;3.83;;;;;;;;;;6239741;28;20392;-78
2023/05/10 14:07:35;;;;;;;5.25;4.15;;;;;;;;;;6242346;28;20045;-78
2023/05/10 14:10:37;;;;;;;4.68;4.00;;;;;;;;;;6239786;28;20086;-78
2023/05/10 14:13:39;;;;;;;5.80;4.30;;;;;;;;;;6239817;28;20050;-78
2023/05/10 14:16:43;;;;;;;4.40;3.85;;;;;;;;;;6240537;28;20053;-78
2023/05/10 14:19:46;;;;;;;4.68;3.83;;;;;;;;;;6237708;28;20172;-79
2023/05/10 14:22:48;;;;;;;4.70;4.03;;;;;;;;;;6239367;28;20053;-78
2023/05/10 14:25:50;;;;;;;5.28;4.30;;;;;;;;;;6239645;28;20060;-79
2023/05/10 14:28:52;;;;;;;4.50;4.05;;;;;;;;;;6238112;28;20057;-79
2023/05/10 14:31:53;;;;;;;5.15;4.20;;;;;;;;;;6238578;28;20052;-79
2023/05/10 14:34:56;;;;;;;5.20;3.92;;;;;;;;;;6241310;28;20057;-78
2023/05/10 14:37:58;;;;;;;5.47;4.40;;;;;;;;;;6237880;28;20045;-78
2023/05/10 14:41:03;;;;;;;6.25;4.22;;;;;;;;;;6239476;28;20288;-79
2023/05/10 14:44:05;;;;;;;4.68;4.15;;;;;;;;;;6239835;28;20326;-78
2023/05/10 14:47:06;;;;;;;4.88;4.38;;;;;;;;;;6239723;28;20076;-78
2023/05/10 14:50:13;;;;;;;5.38;4.28;;;;;;;;;;6237890;28;20049;-82
2023/05/10 14:53:15;;;;;;;6.80;4.45;;;;;;;;;;6240346;28;20046;-78
2023/05/10 14:56:17;;;;;;;5.70;4.70;;;;;;;;;;6238004;28;20211;-78
2023/05/10 14:59:18;;;;;;;5.60;5.07;;;;;;;;;;6238219;28;20149;-77
2023/05/10 15:02:23;;;;;;;6.10;5.18;;;;;;;;;;6238934;28;20369;-78
2023/05/10 15:05:26;;;;;;;5.35;4.80;;;;;;;;;;6239719;28;20560;-77
2023/05/10 15:08:27;;;;;;;5.10;4.47;;;;;;;;;;6236222;28;20135;-77
2023/05/10 15:11:29;;;;;;;4.72;4.32;;;;;;;;;;6238518;28;20060;-78
2023/05/10 15:14:32;;;;;;;4.88;4.47;;;;;;;;;;6237975;28;20237;-78
2023/05/10 15:17:34;;;;;;;5.18;4.68;;;;;;;;;;6236882;28;20049;-79
2023/05/10 15:20:37;;;;;;;6.00;4.93;;;;;;;;;;6242338;28;20641;-79
2023/05/10 15:23:39;;;;;;;4.80;4.23;;;;;;;;;;6238630;28;20057;-79
2023/05/10 15:26:41;;;;;;;4.90;4.45;;;;;;;;;;6237652;28;20069;-78
2023/05/10 15:29:43;;;;;;;5.13;3.95;;;;;;;;;;6238690;28;20055;-78
2023/05/10 15:32:44;;;;;;;5.47;3.97;;;;;;;;;;6240326;28;20148;-78
2023/05/10 15:35:47;;;;;;;4.43;4.03;;;;;;;;;;6244220;28;20054;-78
2023/05/10 15:38:55;;;;;;;4.20;3.70;;;;;;;;;;6239447;28;20046;-79
2023/05/10 15:41:57;;;;;;;5.43;4.00;;;;;;;;;;6244893;28;20112;-79
2023/05/10 15:44:59;;;;;;;4.03;3.58;;;;;;;;;;6246294;28;20088;-78
2023/05/10 15:48:00;;;;;;;3.92;3.40;;;;;;;;;;6249853;28;20120;-79
2023/05/10 15:51:04;;;;;;;7.72;3.42;;;;;;;;;;6246657;28;20067;-79
2023/05/10 15:54:06;;;;;;;5.18;3.30;;;;;;;;;;6245444;28;20341;-78
2023/05/10 15:57:08;;;;;;;4.65;4.03;;;;;;;;;;6242038;28;20132;-78
2023/05/10 16:00:11;;;;;;;3.88;3.40;;;;;;;;;;6241012;28;20084;-78
2023/05/10 16:03:13;;;;;;;3.80;3.10;;;;;;;;;;6243103;28;20213;-79
2023/05/10 16:06:16;;;;;;;5.20;3.30;;;;;;;;;;6241030;28;20053;-78
2023/05/10 16:09:18;;;;;;;5.68;3.80;;;;;;;;;;6244047;28;20215;-79
2023/05/10 16:12:20;;;;;;;4.10;3.60;;;;;;;;;;6240828;28;20053;-78
2023/05/10 16:15:21;;;;;;;5.38;3.90;;;;;;;;;;6242958;28;20056;-78
2023/05/10 16:18:23;;;;;;;4.20;3.80;;;;;;;;;;6240975;28;20061;-78
2023/05/10 16:21:27;;;;;;;3.45;3.15;;;;;;;;;;6243347;28;20243;-78
2023/05/10 16:24:29;;;;;;;4.53;4.00;;;;;;;;;;6244349;28;20065;-78
2023/05/10 16:27:36;;;;;;;4.38;3.97;;;;;;;;;;6242594;28;20081;-78
2023/05/10 16:30:38;;;;;;;4.20;3.80;;;;;;;;;;6240938;28;20137;-78
2023/05/10 16:33:40;;;;;;;5.50;4.00;;;;;;;;;;6240838;28;20214;-78
2023/05/10 16:36:43;;;;;;;3.95;3.50;;;;;;;;;;6247666;28;20049;-78
2023/05/10 16:39:45;;;;;;;4.45;3.55;;;;;;;;;;6239179;28;20447;-78
2023/05/10 16:42:47;;;;;;;4.93;3.78;;;;;;;;;;6243758;28;21736;-78
2023/05/10 16:45:48;;;;;;;4.85;3.90;;;;;;;;;;6239314;28;20087;-84
2023/05/10 16:48:50;;;;;;;4.75;4.25;;;;;;;;;;6244530;28;20285;-86
2023/05/10 16:51:53;;;;;;;5.78;4.38;;;;;;;;;;6245682;28;20104;-80
2023/05/10 16:54:56;;;;;;;7.65;5.13;;;;;;;;;;6242734;28;20064;-82
2023/05/10 16:58:07;;;;;;;5.95;4.18;;;;;;;;;;6242214;28;20810;-87
2023/05/10 17:01:16;;;;;;;5.53;4.75;;;;;;;;;;6243608;28;20298;-85
2023/05/10 17:04:30;;;;;;;5.45;4.47;;;;;;;;;;6243478;28;20349;-87
2023/05/10 17:07:38;;;;;;;5.03;4.53;;;;;;;;;;6241967;28;20064;-87
2023/05/10 17:10:50;;;;;;;4.13;3.45;;;;;;;;;;6244836;28;20068;-87
2023/05/10 17:13:54;;;;;;;4.20;3.72;;;;;;;;;;6238488;28;20052;-86
2023/05/10 17:17:05;;;;;;;4.80;4.00;;;;;;;;;;6240686;28;20295;-86
2023/05/10 17:20:11;;;;;;;4.13;3.72;;;;;;;;;;6237427;28;20053;-86
2023/05/10 17:23:15;;;;;;;4.65;3.75;;;;;;;;;;6240923;28;20057;-85
2023/05/10 17:26:17;;;;;;;4.88;4.38;;;;;;;;;;6241665;28;20057;-85
2023/05/10 17:29:21;;;;;;;4.55;4.07;;;;;;;;;;6239484;28;20045;-85
2023/05/10 17:32:34;;;;;;;5.80;4.10;;;;;;;;;;6239094;28;20053;-85
2023/05/10 17:35:39;;;;;;;4.57;3.90;;;;;;;;;;6241244;28;20064;-88
2023/05/10 17:38:46;;;;;;;4.68;4.03;;;;;;;;;;6237568;28;20121;-85
2023/05/10 17:41:49;;;;;;;5.78;4.00;;;;;;;;;;6242890;28;20057;-89
2023/05/10 17:44:51;;;;;;;6.07;4.75;;;;;;;;;;6221914;28;20050;-87
2023/05/10 17:47:53;;;;;;;6.25;4.45;;;;;;;;;;6241026;28;20064;-84
2023/05/10 17:50:55;;;;;;;6.13;4.75;;;;;;;;;;6240761;28;20418;-84
2023/05/10 17:53:58;;;;;;;4.68;4.18;;;;;;;;;;6239449;28;20061;-85
2023/05/10 17:57:02;;;;;;;4.57;4.05;;;;;;;;;;6239462;28;20052;-86
2023/05/10 18:03:34;;;;;;;4.90;4.28;;;;;;;;;;6238469;28;20343;-86
2023/05/10 18:06:37;;;;;;;5.18;4.35;;;;;;;;;;6241992;28;20049;-82
2023/05/10 18:09:40;;;;;;;7.35;5.30;;;;;;;;;;6239692;28;20065;-76
2023/05/10 18:12:44;;;;;;;6.80;4.27;;;;;;;;;;6241178;28;20060;-80
2023/05/10 18:15:46;;;;;;;6.05;4.95;;;;;;;;;;6238057;28;20104;-81
2023/05/10 18:18:48;;;;;;;5.95;4.50;;;;;;;;;;6236559;28;20045;-81
2023/05/10 18:21:50;;;;;;;4.80;4.30;;;;;;;;;;6242605;28;20054;-81